createdAt,value
2017-09-16T09:17:17.473Z,99.90
2017-09-16T09:19:44.492Z,99.90
2017-09-16T09:22:10.752Z,99.90
2017-09-16T09:24:37.804Z,99.90
2017-09-16T09:27:04.819Z,99.90
2017-09-16T09:29:31.082Z,99.90
2017-09-16T09:31:58.122Z,99.90
2017-09-16T09:34:25.178Z,99.90
2017-09-16T09:36:52.226Z,99.90
2017-09-16T09:39:19.354Z,99.90
2017-09-16T09:41:45.673Z,99.90
2017-09-16T09:44:11.951Z,99.90
2017-09-16T09:46:38.998Z,99.90
2017-09-16T09:49:06.285Z,99.90
2017-09-16T09:51:32.582Z,99.90
2017-09-16T09:53:59.609Z,99.90
2017-09-16T09:56:26.613Z,99.90
2017-09-16T09:58:52.881Z,99.90
2017-09-16T10:01:20.561Z,99.90
2017-09-16T10:03:47.566Z,99.90
2017-09-16T10:06:13.868Z,99.90
2017-09-16T10:08:40.166Z,99.90
2017-09-16T10:11:07.210Z,99.90
2017-09-16T10:13:33.478Z,99.90
2017-09-16T10:16:00.774Z,99.90
2017-09-16T10:18:27.029Z,99.90
2017-09-16T10:20:54.052Z,99.90
2017-09-16T10:23:20.365Z,99.90
2017-09-16T10:25:46.625Z,99.90
2017-09-16T10:28:12.890Z,99.90
2017-09-16T10:30:39.234Z,99.90
2017-09-16T10:33:05.509Z,99.90
2017-09-16T10:35:31.757Z,99.90
2017-09-16T10:37:58.780Z,99.90
2017-09-16T10:40:25.050Z,99.90
2017-09-16T10:42:52.050Z,99.90
2017-09-16T10:45:18.394Z,99.90
2017-09-16T10:47:44.669Z,99.90
2017-09-16T10:50:10.946Z,99.90
2017-09-16T10:52:37.234Z,99.90
2017-09-16T10:55:03.498Z,99.90
2017-09-16T10:57:29.772Z,99.90
2017-09-16T10:59:56.794Z,99.90
2017-09-16T11:02:23.649Z,99.90
2017-09-16T11:04:49.893Z,99.90
2017-09-16T11:07:16.922Z,99.90
2017-09-16T11:09:43.178Z,99.90
2017-09-16T11:12:10.179Z,99.90
2017-09-16T11:14:36.505Z,99.90
2017-09-16T11:17:02.765Z,99.90
2017-09-16T11:19:29.025Z,99.90
2017-09-16T11:21:55.335Z,99.90
2017-09-16T11:24:22.350Z,99.90
2017-09-16T11:26:48.625Z,99.90
2017-09-16T11:29:16.677Z,99.90
2017-09-16T11:31:42.946Z,99.90
2017-09-16T11:34:09.239Z,99.90
2017-09-16T11:36:35.558Z,99.90
2017-09-16T11:39:01.866Z,99.90
2017-09-16T11:41:28.127Z,99.90
2017-09-16T11:43:54.430Z,99.90
2017-09-16T11:46:20.686Z,99.90
2017-09-16T11:48:46.945Z,99.90
2017-09-16T11:51:13.229Z,99.90
2017-09-16T11:53:39.513Z,99.90
2017-09-16T11:56:06.835Z,99.90
2017-09-16T11:58:34.543Z,99.90
2017-09-16T12:01:00.803Z,99.90
2017-09-16T12:03:27.075Z,99.90
2017-09-16T12:05:53.397Z,99.90
2017-09-16T12:08:19.657Z,99.90
2017-09-16T12:10:46.692Z,99.90
2017-09-16T12:13:13.728Z,99.90
2017-09-16T12:15:39.994Z,99.90
2017-09-16T12:18:06.290Z,99.90
2017-09-16T12:20:33.641Z,99.90
2017-09-16T12:22:59.901Z,99.90
2017-09-16T12:25:26.886Z,99.90
2017-09-16T12:27:53.170Z,99.90
2017-09-16T12:30:20.166Z,99.90
2017-09-16T12:32:46.416Z,99.90
2017-09-16T12:35:12.692Z,99.90
2017-09-16T12:37:38.943Z,99.90
2017-09-16T12:40:05.214Z,99.60
2017-09-16T12:42:31.507Z,99.90
2017-09-16T12:44:57.766Z,98.70
2017-09-16T12:47:24.013Z,99.90
2017-09-16T12:49:50.281Z,99.30
2017-09-16T12:52:16.537Z,99.60
2017-09-16T12:54:42.777Z,98.60
2017-09-16T12:57:09.065Z,97.20
2017-09-16T12:59:35.326Z,94.10
2017-09-16T13:02:01.574Z,92.70
2017-09-16T13:04:27.869Z,91.30
2017-09-16T13:06:54.857Z,89.70
2017-09-16T13:09:21.111Z,89.60
2017-09-16T13:11:48.122Z,90.30
2017-09-16T13:14:14.382Z,90.30
2017-09-16T13:16:41.374Z,92.90
2017-09-16T13:19:07.673Z,92.90
2017-09-16T13:21:34.806Z,92.50
2017-09-16T13:24:01.064Z,91.20
2017-09-16T13:26:27.342Z,88.20
2017-09-16T13:28:54.641Z,90.50
2017-09-16T13:31:21.654Z,90.70
2017-09-16T13:33:47.944Z,90.70
2017-09-16T13:36:14.221Z,85.90
2017-09-16T13:38:40.512Z,86.10
2017-09-16T13:41:06.804Z,84.10
2017-09-16T13:43:33.798Z,73.00
2017-09-16T13:46:00.061Z,72.90
2017-09-16T13:48:26.350Z,73.10
2017-09-16T13:50:52.609Z,74.00
2017-09-16T13:53:18.881Z,70.90
2017-09-16T13:55:45.185Z,67.10
2017-09-16T13:58:11.445Z,64.30
2017-09-16T14:00:37.703Z,60.20
2017-09-16T14:03:03.969Z,60.60
2017-09-16T14:05:30.250Z,62.00
2017-09-16T14:07:56.526Z,63.70
2017-09-16T14:10:22.825Z,66.00
2017-09-16T14:12:49.859Z,73.00
2017-09-16T14:15:16.102Z,73.00
2017-09-16T14:17:42.378Z,77.10
2017-09-16T14:20:10.402Z,80.20
2017-09-16T14:22:36.654Z,80.20
2017-09-16T14:25:02.968Z,82.00
2017-09-16T14:27:29.231Z,82.80
2017-09-16T14:29:55.482Z,84.80
2017-09-16T14:32:21.774Z,88.30
2017-09-16T14:34:48.042Z,85.90
2017-09-16T14:37:15.042Z,86.80
2017-09-16T14:39:41.326Z,86.80
2017-09-16T14:42:07.693Z,88.30
2017-09-16T14:44:33.947Z,88.60
2017-09-16T14:47:00.247Z,90.40
2017-09-16T14:49:26.518Z,90.40
2017-09-16T14:51:52.797Z,91.10
2017-09-16T14:54:19.090Z,92.80
2017-09-16T14:56:45.353Z,92.90
2017-09-16T14:59:11.602Z,88.00
2017-09-16T15:01:37.901Z,87.20
2017-09-16T15:04:04.889Z,80.00
2017-09-16T15:06:31.137Z,80.00
2017-09-16T15:08:57.445Z,72.60
2017-09-16T15:11:23.741Z,68.80
2017-09-16T15:13:50.037Z,63.80
2017-09-16T15:16:16.358Z,65.50
2017-09-16T15:18:43.666Z,63.10
2017-09-16T15:21:11.208Z,60.30
2017-09-16T15:23:38.224Z,57.50
2017-09-16T15:26:04.515Z,57.50
2017-09-16T15:28:30.782Z,58.20
2017-09-16T15:30:57.094Z,57.70
2017-09-16T15:33:23.381Z,56.90
2017-09-16T15:35:50.390Z,54.90
2017-09-16T15:38:16.685Z,54.90
2017-09-16T15:40:42.985Z,56.40
2017-09-16T15:43:10.027Z,57.80
2017-09-16T15:45:37.098Z,56.30
2017-09-16T15:48:03.391Z,56.30
2017-09-16T15:50:29.657Z,56.10
2017-09-16T15:52:55.949Z,55.40
2017-09-16T15:55:22.203Z,56.10
2017-09-16T15:57:49.198Z,58.70
2017-09-16T16:00:15.498Z,58.70
2017-09-16T16:02:41.781Z,61.80
2017-09-16T16:05:08.025Z,64.30
2017-09-16T16:07:34.339Z,67.50
2017-09-16T16:10:00.606Z,68.00
2017-09-16T16:12:27.626Z,73.60
2017-09-16T16:14:53.906Z,73.50
2017-09-16T16:17:20.157Z,74.50
2017-09-16T16:19:46.407Z,71.70
2017-09-16T16:22:12.666Z,66.80
2017-09-16T16:24:39.666Z,61.40
2017-09-16T16:27:05.968Z,61.30
2017-09-16T16:29:32.273Z,58.70
2017-09-16T16:31:59.282Z,55.60
2017-09-16T16:34:25.538Z,55.40
2017-09-16T16:36:51.806Z,53.80
2017-09-16T16:39:18.073Z,53.50
2017-09-16T16:41:44.327Z,53.30
2017-09-16T16:44:10.613Z,53.70
2017-09-16T16:46:36.879Z,55.40
2017-09-16T16:49:03.140Z,56.70
2017-09-16T16:51:30.170Z,61.30
2017-09-16T16:53:56.417Z,61.20
2017-09-16T16:56:23.490Z,65.60
2017-09-16T16:58:50.815Z,65.70
2017-09-16T17:01:17.827Z,70.10
2017-09-16T17:03:44.109Z,70.00
2017-09-16T17:06:10.406Z,71.90
2017-09-16T17:08:36.665Z,72.80
2017-09-16T17:11:02.914Z,75.20
2017-09-16T17:13:29.209Z,76.90
2017-09-16T17:15:57.246Z,81.70
2017-09-16T17:18:23.510Z,81.70
2017-09-16T17:20:50.538Z,86.00
2017-09-16T17:23:16.849Z,86.10
2017-09-16T17:25:43.114Z,88.60
2017-09-16T17:28:10.449Z,90.20
2017-09-16T17:30:36.729Z,91.40
2017-09-16T17:33:02.989Z,92.80
2017-09-16T17:35:29.271Z,95.00
2017-09-16T17:37:56.317Z,99.90
2017-09-16T17:40:23.330Z,99.90
2017-09-16T17:42:49.617Z,99.90
2017-09-16T17:45:15.914Z,99.90
2017-09-16T17:47:42.186Z,99.90
2017-09-16T17:50:08.471Z,99.90
2017-09-16T17:52:34.757Z,99.90
2017-09-16T17:55:01.058Z,99.90
2017-09-16T17:57:28.101Z,99.90
2017-09-16T17:59:55.111Z,99.90
2017-09-16T18:02:21.369Z,99.90
2017-09-16T18:04:48.404Z,99.90
2017-09-16T18:07:14.678Z,99.90
2017-09-16T18:09:40.948Z,99.90
2017-09-16T18:12:07.258Z,99.90
2017-09-16T18:14:33.569Z,99.90
2017-09-16T18:16:59.834Z,99.90
2017-09-16T18:19:26.163Z,99.90
2017-09-16T18:21:52.454Z,99.90
2017-09-16T18:24:18.723Z,99.90
2017-09-16T18:26:45.025Z,99.90
2017-09-16T18:29:11.307Z,99.90
2017-09-16T18:31:37.581Z,99.90
2017-09-16T18:34:03.869Z,99.90
2017-09-16T18:36:30.134Z,99.90
2017-09-16T18:38:56.450Z,99.90
2017-09-16T18:41:23.514Z,99.90
2017-09-16T18:43:49.791Z,99.90
2017-09-16T18:46:16.069Z,99.90
2017-09-16T18:48:42.369Z,99.90
2017-09-16T18:51:08.639Z,99.90
2017-09-16T18:53:34.918Z,99.90
2017-09-16T18:56:01.226Z,99.90
2017-09-16T18:58:27.536Z,99.90
2017-09-16T19:00:53.802Z,99.90
2017-09-16T19:03:20.091Z,99.90
2017-09-16T19:05:46.352Z,99.90
2017-09-16T19:08:12.622Z,99.90
2017-09-16T19:10:39.647Z,99.90
2017-09-16T19:13:05.946Z,99.90
2017-09-16T19:15:32.226Z,99.90
2017-09-16T19:17:58.522Z,99.90
2017-09-16T19:20:24.887Z,99.90
2017-09-16T19:22:51.178Z,99.90
2017-09-16T19:25:17.459Z,99.90
2017-09-16T19:27:44.481Z,99.90
2017-09-16T19:30:10.753Z,99.90
2017-09-16T19:32:37.034Z,99.90
2017-09-16T19:35:03.295Z,99.90
2017-09-16T19:37:30.295Z,99.90
2017-09-16T19:39:56.592Z,99.90
2017-09-16T19:42:22.866Z,99.90
2017-09-16T19:44:49.161Z,99.90
2017-09-16T19:47:16.434Z,99.90
2017-09-16T19:49:42.706Z,99.90
2017-09-16T19:52:08.966Z,99.90
2017-09-16T19:54:36.013Z,99.90
2017-09-16T19:57:02.274Z,99.90
2017-09-16T19:59:28.593Z,99.90
2017-09-16T20:01:54.893Z,99.90
2017-09-16T20:04:21.934Z,99.90
2017-09-16T20:06:48.978Z,99.90
2017-09-16T20:09:16.046Z,99.90
2017-09-16T20:11:42.337Z,99.90
2017-09-16T20:14:08.605Z,99.90
2017-09-16T20:16:35.639Z,99.90
2017-09-16T20:19:01.918Z,99.90
2017-09-16T20:21:28.198Z,99.90
2017-09-16T20:23:55.242Z,99.90
2017-09-16T20:26:21.517Z,99.90
2017-09-16T20:28:47.773Z,99.90
2017-09-16T20:31:14.065Z,99.90
2017-09-16T20:33:40.342Z,99.90
2017-09-16T20:36:06.633Z,99.90
2017-09-16T20:38:32.957Z,99.90
2017-09-16T20:40:59.217Z,99.90
2017-09-16T20:43:25.488Z,99.90
2017-09-16T20:45:52.505Z,99.90
2017-09-16T20:48:18.769Z,99.90
2017-09-16T20:50:45.802Z,99.90
2017-09-16T20:53:12.102Z,99.90
2017-09-16T20:55:38.367Z,99.90
2017-09-16T20:58:04.634Z,99.90
2017-09-16T21:00:30.914Z,99.90
2017-09-16T21:02:57.218Z,99.90
2017-09-16T21:05:23.478Z,99.90
2017-09-16T21:07:49.775Z,99.90
2017-09-16T21:10:16.077Z,99.90
2017-09-16T21:12:43.072Z,99.90
2017-09-16T21:15:09.371Z,99.90
2017-09-16T21:17:35.626Z,99.90
2017-09-16T21:20:01.906Z,99.90
2017-09-16T21:22:28.934Z,99.90
2017-09-16T21:24:55.219Z,99.90
2017-09-16T21:27:21.513Z,99.90
2017-09-16T21:29:48.549Z,99.90
2017-09-16T21:32:14.818Z,99.90
2017-09-16T21:34:41.064Z,99.90
2017-09-16T21:37:07.477Z,99.90
2017-09-16T21:39:33.741Z,99.90
2017-09-16T21:42:00.026Z,99.90
2017-09-16T21:44:27.054Z,99.90
2017-09-16T21:46:53.315Z,99.90
2017-09-16T21:49:19.580Z,99.90
2017-09-16T21:51:45.874Z,99.90
2017-09-16T21:54:12.150Z,99.90
2017-09-16T21:56:38.446Z,99.90
2017-09-16T21:59:04.742Z,99.90
2017-09-16T22:01:31.747Z,99.90
2017-09-16T22:03:58.025Z,99.90
2017-09-16T22:06:25.078Z,99.90
2017-09-16T22:08:52.092Z,99.90
2017-09-16T22:11:18.353Z,99.90
2017-09-16T22:13:45.370Z,99.90
2017-09-16T22:16:11.629Z,99.90
2017-09-16T22:18:38.638Z,99.90
2017-09-16T22:21:04.968Z,99.90
2017-09-16T22:23:31.233Z,99.90
2017-09-16T22:25:58.254Z,99.90
2017-09-16T22:28:26.635Z,99.90
2017-09-16T22:30:53.670Z,99.90
2017-09-16T22:33:19.930Z,99.90
2017-09-16T22:35:46.966Z,99.90
2017-09-16T22:38:13.222Z,99.90
2017-09-16T22:40:40.238Z,99.90
2017-09-16T22:43:06.545Z,99.90
2017-09-16T22:45:33.830Z,99.90
2017-09-16T22:48:00.098Z,99.90
2017-09-16T22:50:26.394Z,99.90
2017-09-16T22:52:52.661Z,99.90
2017-09-16T22:55:18.950Z,99.90
2017-09-16T22:57:45.282Z,99.90
2017-09-16T23:00:11.570Z,99.90
2017-09-16T23:02:37.859Z,99.90
2017-09-16T23:05:04.946Z,99.90
2017-09-16T23:07:31.945Z,99.90
2017-09-16T23:09:58.219Z,99.90
2017-09-16T23:12:24.535Z,99.90
2017-09-16T23:14:51.558Z,99.90
2017-09-16T23:17:17.822Z,99.90
2017-09-16T23:19:44.090Z,99.90
2017-09-16T23:22:10.370Z,99.90
2017-09-16T23:24:37.379Z,99.90
2017-09-16T23:27:03.702Z,99.90
2017-09-16T23:29:29.966Z,99.90
2017-09-16T23:31:58.054Z,99.90
2017-09-16T23:34:25.086Z,99.90
2017-09-16T23:36:52.085Z,99.90
2017-09-16T23:39:18.337Z,99.90
2017-09-16T23:41:44.616Z,99.90
2017-09-16T23:44:10.878Z,99.90
2017-09-16T23:46:37.157Z,99.90
2017-09-16T23:49:05.217Z,99.90
2017-09-16T23:51:31.480Z,99.90
2017-09-16T23:53:57.774Z,99.90
2017-09-16T23:56:24.061Z,99.90
2017-09-16T23:58:50.354Z,99.90
